Time;durP1;ratioP1;P1;durP2;ratioP2;P2;SDS_P1;SDS_P2;PMS_P1;PMS_P2;Temp;Humidity;BMP_temperature;BMP_pressure;BME280_temperature;BME280_humidity;BME280_pressure;Samples;Min_cycle;Max_cycle;Signal;HPM_P1;HPM_P2
2022/06/12 00:00:58;;;;;;;6.97;4.57;;;14.00;99.90;;;;;;5097210;28;20126;-89
2022/06/12 00:03:26;;;;;;;7.10;4.70;;;14.00;99.90;;;;;;5096756;28;20024;-88
2022/06/12 00:05:55;;;;;;;6.93;4.43;;;13.90;99.90;;;;;;5079134;28;20471;-89
2022/06/12 00:08:22;;;;;;;8.63;4.78;;;13.90;99.90;;;;;;5095958;28;20045;-88
2022/06/12 00:10:50;;;;;;;6.70;4.60;;;13.80;99.90;;;;;;5095810;28;20032;-89
2022/06/12 00:13:55;;;;;;;7.72;4.90;;;13.80;99.90;;;;;;5078733;28;20040;-89
2022/06/12 00:16:22;;;;;;;7.38;4.60;;;13.80;99.90;;;;;;5078731;28;20063;-89
2022/06/12 00:18:48;;;;;;;7.55;4.70;;;13.70;99.90;;;;;;5095447;28;20047;-89
2022/06/12 00:21:15;;;;;;;8.00;4.53;;;13.70;99.90;;;;;;5095450;28;20055;-89
2022/06/12 00:24:05;;;;;;;6.70;4.22;;;13.70;99.90;;;;;;5078250;28;20028;-89
2022/06/12 00:26:34;;;;;;;7.95;4.82;;;13.70;99.90;;;;;;5095681;28;20024;-89
2022/06/12 00:29:02;;;;;;;10.40;4.93;;;13.70;99.90;;;;;;5078735;28;20030;-88
2022/06/12 00:31:29;;;;;;;7.05;4.65;;;13.70;99.90;;;;;;5093630;28;20131;-88
2022/06/12 00:33:55;;;;;;;10.77;4.82;;;13.70;99.90;;;;;;5094773;28;20024;-89
2022/06/12 00:36:21;;;;;;;7.55;4.63;;;13.70;99.90;;;;;;5095148;28;20462;-88
2022/06/12 00:38:46;;;;;;;10.00;5.20;;;13.60;99.90;;;;;;5078672;28;20036;-89
2022/06/12 00:41:12;;;;;;;10.65;5.35;;;13.60;99.90;;;;;;5095404;28;20472;-88
2022/06/12 00:43:38;;;;;;;8.80;5.45;;;13.50;99.90;;;;;;5095153;28;20111;-89
2022/06/12 00:46:06;;;;;;;6.15;4.65;;;13.50;99.90;;;;;;5095036;28;20035;-88
2022/06/12 00:48:36;;;;;;;5.85;4.50;;;13.50;99.90;;;;;;5077734;28;20143;-89
2022/06/12 00:51:04;;;;;;;6.63;4.72;;;13.50;99.90;;;;;;5078158;28;20036;-89
2022/06/12 00:53:39;;;;;;;8.57;5.13;;;13.60;99.90;;;;;;5094838;28;20122;-89
2022/06/12 00:56:10;;;;;;;5.50;4.15;;;13.70;99.90;;;;;;5095204;28;20034;-88
2022/06/12 01:02:27;;;;;;;7.03;5.25;;;13.50;99.90;;;;;;5096625;28;20067;-89
2022/06/12 01:07:41;;;;;;;6.88;5.30;;;13.40;99.90;;;;;;5095872;28;20034;-89
2022/06/12 01:10:10;;;;;;;7.93;5.20;;;13.40;99.90;;;;;;5094173;28;20111;-88
2022/06/12 01:12:44;;;;;;;6.80;4.88;;;13.50;99.90;;;;;;5095795;28;20282;-88
2022/06/12 01:15:45;;;;;;;9.07;5.38;;;13.40;99.90;;;;;;5094507;28;20110;-89
2022/06/12 01:18:17;;;;;;;9.35;5.13;;;13.40;99.90;;;;;;5077784;28;20035;-88
2022/06/12 01:20:53;;;;;;;8.27;5.47;;;13.30;99.90;;;;;;5077538;28;20065;-89
2022/06/12 01:23:42;;;;;;;8.60;4.97;;;13.30;99.90;;;;;;5093696;28;20760;-88
2022/06/12 01:26:49;;;;;;;7.45;5.35;;;13.30;99.90;;;;;;5077594;28;20034;-88
2022/06/12 01:29:42;;;;;;;9.65;5.75;;;13.40;99.90;;;;;;5094212;28;20031;-89
2022/06/12 01:32:18;;;;;;;10.70;4.95;;;13.30;99.90;;;;;;5094983;28;20402;-89
2022/06/12 01:35:27;;;;;;;6.95;5.20;;;13.20;99.90;;;;;;5076582;28;20530;-88
2022/06/12 01:38:29;;;;;;;7.80;5.93;;;13.20;99.90;;;;;;5016164;28;20033;-88
2022/06/12 01:41:00;;;;;;;13.13;6.18;;;13.10;99.90;;;;;;5033100;28;20064;-89
2022/06/12 01:43:29;;;;;;;;;;;13.00;99.90;;;;;;5076382;28;20043;-89
2022/06/12 01:46:05;;;;;;;13.35;6.45;;;13.00;99.90;;;;;;5076957;28;19912;-89
2022/06/12 01:48:46;;;;;;;11.48;5.97;;;13.00;99.90;;;;;;5076957;28;20063;-89
2022/06/12 01:51:21;;;;;;;8.97;6.07;;;13.00;99.90;;;;;;5076546;28;20494;-89
2022/06/12 01:53:56;;;;;;;14.00;6.57;;;12.90;99.90;;;;;;5076494;28;20647;-89
2022/06/12 01:56:37;;;;;;;10.60;6.07;;;12.80;99.90;;;;;;5076624;28;20036;-88
2022/06/12 01:59:06;;;;;;;;;;;12.80;99.90;;;;;;5095109;28;20036;-88
2022/06/12 02:02:05;;;;;;;11.15;6.63;;;12.80;99.90;;;;;;5076744;28;19912;-88
2022/06/12 02:04:38;;;;;;;8.98;5.97;;;12.80;99.90;;;;;;5072133;28;20032;-88
2022/06/12 02:07:19;;;;;;;8.60;6.47;;;12.80;99.90;;;;;;5094906;28;20044;-88
2022/06/12 02:09:59;;;;;;;12.57;7.57;;;12.70;99.90;;;;;;5076622;28;20032;-89
2022/06/12 02:15:36;;;;;;;9.05;5.82;;;12.70;99.90;;;;;;5093396;28;20513;-88
2022/06/12 02:18:14;;;;;;;8.23;5.57;;;12.60;99.90;;;;;;5093301;28;20436;-89
2022/06/12 02:20:50;;;;;;;8.73;5.43;;;12.60;99.90;;;;;;5093632;28;20040;-89
2022/06/12 02:23:25;;;;;;;15.45;6.50;;;12.60;99.90;;;;;;5093012;28;20384;-89
2022/06/12 02:25:55;;;;;;;8.15;6.10;;;12.60;99.90;;;;;;5094630;28;20107;-88
2022/06/12 02:28:26;;;;;;;11.25;6.22;;;12.60;99.90;;;;;;5093132;28;20032;-88
2022/06/12 02:30:57;;;;;;;10.07;6.57;;;12.60;99.90;;;;;;5092850;28;20046;-89
2022/06/12 02:33:47;;;;;;;12.45;5.60;;;12.60;99.90;;;;;;5092960;28;20511;-88
2022/06/12 02:36:21;;;;;;;9.73;5.97;;;12.50;99.90;;;;;;5076400;28;20042;-88
2022/06/12 02:38:57;;;;;;;9.40;5.40;;;12.50;99.90;;;;;;5076635;28;20032;-89
2022/06/12 02:41:37;;;;;;;7.50;6.03;;;12.50;99.90;;;;;;5093303;28;20089;-89
2022/06/12 02:44:13;;;;;;;10.45;5.70;;;12.40;99.90;;;;;;5093092;28;20032;-89
2022/06/12 02:46:49;;;;;;;8.77;6.15;;;12.40;99.90;;;;;;5094327;28;20482;-89
2022/06/12 02:49:16;;;;;;;9.20;5.60;;;12.40;99.90;;;;;;5076666;28;20036;-89
2022/06/12 02:51:48;;;;;;;8.07;5.82;;;12.40;99.90;;;;;;5093309;28;20035;-88
2022/06/12 02:54:58;;;;;;;7.72;5.45;;;12.40;99.90;;;;;;5077422;28;20417;-89
2022/06/12 02:57:37;;;;;;;7.88;5.95;;;12.30;99.90;;;;;;5097421;28;20028;-89
2022/06/12 03:00:18;;;;;;;8.73;5.80;;;12.40;99.90;;;;;;5097521;28;20035;-88
2022/06/12 03:02:56;;;;;;;10.60;5.97;;;12.30;99.90;;;;;;5097448;28;20391;-89
2022/06/12 03:05:26;;;;;;;7.75;5.10;;;12.40;99.90;;;;;;5079420;28;20051;-89
2022/06/12 03:07:59;;;;;;;8.35;5.50;;;12.30;99.90;;;;;;5080026;28;20086;-88
2022/06/12 03:10:30;;;;;;;8.73;5.97;;;12.30;99.90;;;;;;5080208;28;20062;-89
2022/06/12 03:13:09;;;;;;;8.07;5.75;;;12.30;99.90;;;;;;5096995;28;20495;-89
2022/06/12 03:15:58;;;;;;;8.85;5.85;;;12.30;99.90;;;;;;5079931;28;20036;-89
2022/06/12 03:18:31;;;;;;;9.40;6.30;;;12.30;99.90;;;;;;5079858;28;20035;-85
2022/06/12 03:21:02;;;;;;;12.68;5.43;;;12.30;99.90;;;;;;5079089;28;20047;-85
2022/06/12 03:24:01;;;;;;;8.68;6.00;;;12.40;99.90;;;;;;5078691;28;20074;-85
2022/06/12 03:26:49;;;;;;;12.10;6.35;;;12.40;99.90;;;;;;5096322;28;20164;-85
2022/06/12 03:29:30;;;;;;;8.13;6.13;;;12.50;99.90;;;;;;5095818;28;20039;-84
2022/06/12 03:32:06;;;;;;;12.48;5.95;;;12.60;99.90;;;;;;5095555;28;20059;-85
2022/06/12 03:34:40;;;;;;;15.73;6.20;;;12.60;99.90;;;;;;5095191;28;20036;-84
2022/06/12 03:37:13;;;;;;;11.15;6.05;;;12.70;99.90;;;;;;5078925;28;20035;-85
2022/06/12 03:39:45;;;;;;;8.35;5.68;;;12.70;99.90;;;;;;5095732;28;20063;-85
2022/06/12 03:42:41;;;;;;;9.15;5.93;;;12.80;99.90;;;;;;5097167;28;20471;-85
2022/06/12 03:45:24;;;;;;;8.23;5.53;;;12.90;99.90;;;;;;5096719;28;20383;-84
2022/06/12 03:48:15;;;;;;;10.18;5.90;;;12.90;99.90;;;;;;5079034;28;20039;-85
2022/06/12 03:50:44;;;;;;;10.67;6.23;;;13.00;99.90;;;;;;5078730;28;20039;-85
2022/06/12 03:53:20;;;;;;;7.20;5.28;;;13.10;99.90;;;;;;5095272;28;20039;-85
2022/06/12 03:59:12;;;;;;;8.93;5.25;;;13.20;99.90;;;;;;5090423;28;20661;-85
2022/06/12 04:01:40;;;;;;;8.23;5.30;;;13.20;99.90;;;;;;5093927;28;20204;-85
2022/06/12 04:04:06;;;;;;;15.13;6.18;;;13.30;99.90;;;;;;5093474;28;20032;-84
2022/06/12 04:06:33;;;;;;;7.60;5.85;;;13.30;99.90;;;;;;5077721;28;20156;-85
2022/06/12 04:09:12;;;;;;;10.38;5.40;;;13.50;99.90;;;;;;5077736;28;20032;-85
2022/06/12 04:11:39;;;;;;;9.23;5.10;;;13.70;99.90;;;;;;5094595;28;20039;-85
2022/06/12 04:14:10;;;;;;;17.33;5.50;;;13.80;99.90;;;;;;5093093;28;20051;-84
2022/06/12 04:16:43;;;;;;;9.02;5.47;;;13.90;99.90;;;;;;5077433;28;20089;-85
2022/06/12 04:19:18;;;;;;;14.27;5.43;;;14.00;99.90;;;;;;5077441;28;20513;-85
2022/06/12 04:21:50;;;;;;;10.10;5.50;;;14.10;99.90;;;;;;5094189;28;20403;-85
2022/06/12 04:24:56;;;;;;;6.78;4.85;;;14.10;99.90;;;;;;5093704;28;20044;-85
2022/06/12 04:27:36;;;;;;;13.13;5.32;;;14.20;99.90;;;;;;5032653;28;20033;-85
2022/06/12 04:30:41;;;;;;;15.18;5.63;;;14.30;99.90;;;;;;5087840;28;20093;-85
2022/06/12 04:33:19;;;;;;;7.40;4.93;;;14.40;99.90;;;;;;4999327;28;20084;-85
2022/06/12 04:35:56;;;;;;;9.35;5.25;;;14.40;99.90;;;;;;5032231;28;20037;-85
2022/06/12 04:38:23;;;;;;;11.18;5.22;;;14.50;99.90;;;;;;5047358;28;20043;-85
2022/06/12 04:40:50;;;;;;;9.15;5.40;;;14.50;99.90;;;;;;5093528;28;20039;-85
2022/06/12 04:43:16;;;;;;;10.80;5.82;;;14.70;99.90;;;;;;5092932;28;20028;-85
2022/06/12 04:45:43;;;;;;;6.47;5.57;;;14.80;99.90;;;;;;5076172;28;20032;-85
2022/06/12 04:48:26;;;;;;;9.23;5.10;;;14.90;99.90;;;;;;5075917;28;20360;-85
2022/06/12 04:50:52;;;;;;;10.13;5.40;;;15.10;99.90;;;;;;5076538;28;20483;-85
2022/06/12 04:53:17;;;;;;;7.47;5.68;;;15.20;99.90;;;;;;5076440;28;20028;-85
2022/06/12 04:55:43;;;;;;;6.57;4.57;;;15.40;99.90;;;;;;5093561;28;20032;-85
2022/06/12 04:58:09;;;;;;;9.50;4.43;;;15.50;99.90;;;;;;5093394;28;20028;-85
2022/06/12 05:00:36;;;;;;;10.73;5.40;;;15.70;99.90;;;;;;5093405;28;20085;-85
2022/06/12 05:03:02;;;;;;;9.27;5.35;;;15.90;99.90;;;;;;5070116;28;20187;-85
2022/06/12 05:05:28;;;;;;;9.23;4.53;;;16.20;99.90;;;;;;5076324;28;20490;-85
2022/06/12 05:07:56;;;;;;;7.55;4.55;;;16.40;99.90;;;;;;5091099;28;20102;-84
2022/06/12 05:10:21;;;;;;;7.63;4.57;;;16.70;99.90;;;;;;5092798;28;20134;-85
2022/06/12 05:12:48;;;;;;;9.88;5.18;;;17.00;99.90;;;;;;5093178;28;20052;-85
2022/06/12 05:15:14;;;;;;;8.63;4.82;;;17.10;99.90;;;;;;5092754;28;20119;-85
2022/06/12 05:17:56;;;;;;;5.95;4.18;;;17.20;99.90;;;;;;5092291;28;20036;-85
2022/06/12 05:20:26;;;;;;;10.65;4.57;;;17.30;99.90;;;;;;5092368;28;20032;-85
2022/06/12 05:22:52;;;;;;;10.10;4.47;;;17.40;99.90;;;;;;5092689;28;20173;-85
2022/06/12 05:29:29;;;;;;;6.35;4.68;;;17.60;99.90;;;;;;5094241;28;20115;-85
2022/06/12 05:32:51;;;;;;;9.60;4.95;;;17.80;99.90;;;;;;5092604;28;20506;-84
2022/06/12 05:35:18;;;;;;;8.23;4.60;;;17.90;99.90;;;;;;5091929;28;20024;-85
2022/06/12 05:37:44;;;;;;;7.22;4.43;;;18.10;99.90;;;;;;5092039;28;20032;-85
2022/06/12 05:40:16;;;;;;;5.93;4.00;;;18.20;99.90;;;;;;5092099;28;20483;-85
2022/06/12 05:42:42;;;;;;;9.05;4.15;;;18.30;99.90;;;;;;5092165;28;20032;-85
2022/06/12 05:45:12;;;;;;;7.05;4.70;;;18.40;99.90;;;;;;5091826;28;20586;-85
2022/06/12 05:47:55;;;;;;;9.90;4.80;;;18.50;99.90;;;;;;5075404;28;20043;-85
2022/06/12 05:50:24;;;;;;;5.80;3.97;;;18.60;99.90;;;;;;5093217;28;20277;-84
2022/06/12 05:52:50;;;;;;;6.45;4.30;;;18.80;99.90;;;;;;5092044;28;20107;-85
2022/06/12 05:55:16;;;;;;;10.77;4.63;;;18.90;99.90;;;;;;5090889;28;20127;-85
2022/06/12 05:57:42;;;;;;;6.57;4.65;;;19.00;99.90;;;;;;5070626;28;20024;-85
2022/06/12 06:00:15;;;;;;;7.63;4.30;;;19.10;99.90;;;;;;5089973;28;20728;-85
2022/06/12 06:02:43;;;;;;;4.88;3.55;;;19.20;99.90;;;;;;5091939;28;20049;-85
2022/06/12 06:05:09;;;;;;;5.97;4.30;;;19.30;99.90;;;;;;5091759;28;20552;-85
2022/06/12 06:07:35;;;;;;;8.85;4.10;;;19.50;99.90;;;;;;5088809;28;20057;-85
2022/06/12 06:10:03;;;;;;;6.18;3.80;;;19.50;99.90;;;;;;5092225;28;20120;-84
2022/06/12 06:12:29;;;;;;;9.05;4.25;;;19.70;99.90;;;;;;5093343;28;20032;-85
2022/06/12 06:14:54;;;;;;;8.65;3.92;;;19.80;99.90;;;;;;5074669;28;20085;-85
2022/06/12 06:17:20;;;;;;;4.82;3.63;;;19.90;99.90;;;;;;5091965;28;20028;-85
2022/06/12 06:19:46;;;;;;;8.23;3.63;;;20.00;99.90;;;;;;5092880;28;20568;-85
2022/06/12 06:22:16;;;;;;;5.72;3.30;;;20.10;99.90;;;;;;5092840;28;20369;-85
2022/06/12 06:24:42;;;;;;;6.00;3.25;;;20.20;99.90;;;;;;5074426;28;20395;-85
2022/06/12 06:27:09;;;;;;;8.50;3.65;;;20.30;99.90;;;;;;5092876;28;20050;-89
2022/06/12 06:29:38;;;;;;;4.35;3.67;;;20.40;99.90;;;;;;5093667;28;20035;-90
2022/06/12 06:32:05;;;;;;;5.57;3.20;;;20.40;99.90;;;;;;5075450;28;20032;-90
2022/06/12 06:34:31;;;;;;;11.65;3.67;;;20.50;99.90;;;;;;5092262;28;20089;-90
2022/06/12 06:37:05;;;;;;;3.45;3.15;;;20.50;99.90;;;;;;5075729;28;20032;-90
2022/06/12 06:39:31;;;;;;;4.47;3.25;;;20.60;99.90;;;;;;5075626;28;20122;-90
2022/06/12 06:41:56;;;;;;;6.43;3.50;;;20.60;99.90;;;;;;5075478;28;20147;-90
2022/06/12 06:47:07;;;;;;;6.97;3.45;;;20.70;99.90;;;;;;5092764;28;20131;-90
2022/06/12 06:49:33;;;;;;;7.78;3.22;;;20.80;99.90;;;;;;5075843;28;20032;-89
2022/06/12 06:51:59;;;;;;;5.57;2.90;;;20.90;99.90;;;;;;5092291;28;20127;-89
2022/06/12 06:54:26;;;;;;;2.90;2.55;;;20.90;99.90;;;;;;5089808;28;20115;-91
2022/06/12 06:56:52;;;;;;;3.55;2.58;;;21.00;99.90;;;;;;5089495;28;20501;-91
2022/06/12 06:59:18;;;;;;;3.65;2.60;;;21.10;99.90;;;;;;5091560;28;20071;-89
2022/06/12 07:01:45;;;;;;;5.90;2.15;;;21.20;99.90;;;;;;5075242;28;20089;-90
2022/06/12 07:04:11;;;;;;;5.82;2.40;;;21.30;99.90;;;;;;5093108;28;20471;-89
2022/06/12 07:06:37;;;;;;;3.95;2.03;;;21.30;99.90;;;;;;5092460;28;20484;-89
2022/06/12 07:09:04;;;;;;;4.13;1.98;;;21.40;99.90;;;;;;5076200;28;20524;-90
2022/06/12 07:11:30;;;;;;;2.65;2.15;;;21.80;99.90;;;;;;5075364;28;20364;-90
2022/06/12 07:13:56;;;;;;;2.95;1.63;;;22.70;99.90;;;;;;5092261;28;20036;-90
2022/06/12 07:16:23;;;;;;;4.95;1.75;;;23.90;99.90;;;;;;5075283;28;20683;-90
2022/06/12 07:18:49;;;;;;;4.28;1.98;;;25.50;99.90;;;;;;5076023;28;20038;-89
2022/06/12 07:21:15;;;;;;;3.80;1.90;;;26.20;99.90;;;;;;5075020;28;20032;-89
2022/06/12 07:23:41;;;;;;;4.72;2.10;;;26.90;99.90;;;;;;5092091;28;20502;-90
2022/06/12 07:26:13;;;;;;;3.92;1.50;;;27.10;99.90;;;;;;5092233;28;20429;-90
2022/06/12 07:28:38;;;;;;;2.53;2.08;;;27.30;99.90;;;;;;5075602;28;20028;-90
2022/06/12 07:31:07;;;;;;;3.75;1.65;;;27.50;99.90;;;;;;5092330;28;20422;-89
2022/06/12 07:33:32;;;;;;;2.38;1.58;;;27.70;99.70;;;;;;5091719;28;20506;-91
2022/06/12 07:35:59;;;;;;;1.77;1.67;;;27.50;98.40;;;;;;5092594;28;20032;-89
2022/06/12 07:38:27;;;;;;;2.83;2.05;;;27.70;98.40;;;;;;5075247;28;20047;-90
2022/06/12 07:40:57;;;;;;;2.80;1.70;;;28.20;97.60;;;;;;5077317;28;20676;-89
2022/06/12 07:43:23;;;;;;;5.07;2.23;;;27.30;97.10;;;;;;5078858;28;20028;-89
2022/06/12 07:45:51;;;;;;;8.55;2.33;;;26.10;99.70;;;;;;5079181;28;20317;-90
2022/06/12 07:48:22;;;;;;;5.57;2.40;;;25.10;99.90;;;;;;5079066;28;20067;-90
2022/06/12 07:50:48;;;;;;;;;;;24.40;99.90;;;;;;5079613;28;20028;-89
2022/06/12 07:53:15;;;;;;;3.47;2.10;;;23.90;99.90;;;;;;5078485;28;20422;-89
2022/06/12 07:55:42;;;;;;;4.50;2.22;;;23.60;99.90;;;;;;5095580;28;20032;-90
2022/06/12 07:58:09;;;;;;;5.57;2.70;;;23.60;99.90;;;;;;5095468;28;20130;-89
2022/06/12 08:00:38;;;;;;;4.65;2.40;;;24.80;99.90;;;;;;5095272;28;20179;-89
2022/06/12 08:03:05;;;;;;;4.90;2.25;;;26.50;99.90;;;;;;5078191;28;20115;-89
2022/06/12 08:05:31;;;;;;;3.65;2.08;;;28.50;99.90;;;;;;5077952;28;20467;-89
2022/06/12 08:07:57;;;;;;;3.97;1.73;;;29.10;99.30;;;;;;5078507;28;20028;-90
2022/06/12 08:10:23;;;;;;;9.13;2.78;;;29.80;96.60;;;;;;5078443;28;20047;-89
2022/06/12 08:12:49;;;;;;;4.20;2.00;;;30.60;93.80;;;;;;5078376;28;20090;-90
2022/06/12 08:15:20;;;;;;;6.50;2.35;;;31.50;92.00;;;;;;5095243;28;20388;-90
2022/06/12 08:17:45;;;;;;;;;;;31.90;89.10;;;;;;5095356;28;20034;-87
2022/06/12 08:20:25;;;;;;;3.47;1.90;;;31.90;86.60;;;;;;5094773;28;19998;-89
2022/06/12 08:23:29;;;;;;;3.65;1.92;;;32.00;85.10;;;;;;5094839;28;20027;-90
2022/06/12 08:26:33;;;;;;;3.75;2.00;;;31.30;82.50;;;;;;5078536;28;20035;-89
2022/06/12 08:29:10;;;;;;;5.40;1.77;;;30.80;84.50;;;;;;5001257;28;20033;-90
2022/06/12 08:32:31;;;;;;;3.83;1.90;;;30.90;83.70;;;;;;5017276;28;20088;-91
2022/06/12 08:35:05;;;;;;;3.50;1.90;;;31.20;82.00;;;;;;5071483;28;20044;-90
2022/06/12 08:37:37;;;;;;;3.97;2.25;;;31.10;82.10;;;;;;5078156;28;20064;-91
2022/06/12 08:40:08;;;;;;;5.10;1.60;;;31.20;80.40;;;;;;5077415;28;20628;-89
2022/06/12 08:43:19;;;;;;;5.65;1.98;;;31.70;78.50;;;;;;5095209;28;20783;-89
2022/06/12 08:45:48;;;;;;;3.70;1.63;;;31.20;79.20;;;;;;5018126;28;20049;-89
2022/06/12 08:48:31;;;;;;;3.83;1.92;;;30.80;77.20;;;;;;5085903;28;20032;-90
2022/06/12 08:51:05;;;;;;;2.75;1.92;;;31.00;78.60;;;;;;5095095;28;20586;-88
2022/06/12 08:53:38;;;;;;;3.80;1.80;;;30.80;76.70;;;;;;5077511;28;20059;-90
2022/06/12 08:56:40;;;;;;;3.17;1.80;;;31.00;78.10;;;;;;5095683;28;20413;-89
2022/06/12 08:59:31;;;;;;;6.47;2.35;;;30.70;79.60;;;;;;5095193;28;20047;-90
2022/06/12 09:01:57;;;;;;;7.22;1.90;;;30.60;77.50;;;;;;5095063;28;20187;-90
2022/06/12 09:04:23;;;;;;;15.68;1.92;;;30.50;77.10;;;;;;5095812;28;20459;-89
2022/06/12 09:06:54;;;;;;;5.05;1.80;;;30.50;78.70;;;;;;5078040;28;20031;-91
2022/06/12 09:09:31;;;;;;;3.80;1.77;;;30.50;78.00;;;;;;5091892;28;20078;-86
2022/06/12 09:12:26;;;;;;;7.00;1.90;;;30.20;77.50;;;;;;5077635;28;20426;-88
2022/06/12 09:14:54;;;;;;;4.60;2.00;;;30.30;78.50;;;;;;5076518;28;20032;-89
2022/06/12 09:18:01;;;;;;;3.40;2.13;;;30.80;77.60;;;;;;5077950;28;20417;-88
2022/06/12 09:20:52;;;;;;;4.80;2.00;;;31.00;76.00;;;;;;5095249;28;20147;-87
2022/06/12 09:23:32;;;;;;;3.40;1.88;;;30.90;75.90;;;;;;5078930;28;20031;-87
2022/06/12 09:26:06;;;;;;;3.03;2.10;;;31.10;75.20;;;;;;5097286;28;20099;-90
2022/06/12 09:28:53;;;;;;;4.80;1.98;;;31.10;74.40;;;;;;5078750;28;20024;-91
2022/06/12 09:31:39;;;;;;;6.72;1.90;;;31.20;74.30;;;;;;5075729;28;20046;-90
2022/06/12 09:34:17;;;;;;;4.72;1.67;;;30.30;74.50;;;;;;5077274;28;20032;-89
2022/06/12 09:40:00;;;;;;;3.95;2.17;;;29.90;77.50;;;;;;5093689;28;20028;-91
2022/06/12 09:42:45;;;;;;;3.03;2.42;;;29.40;81.20;;;;;;5077366;28;20047;-89
2022/06/12 09:45:29;;;;;;;6.85;2.63;;;28.40;81.30;;;;;;5079502;28;20123;-91
2022/06/12 09:48:20;;;;;;;8.45;2.40;;;28.30;81.60;;;;;;5076660;28;20085;-90
2022/06/12 09:50:58;;;;;;;2.53;2.05;;;27.90;83.80;;;;;;5092438;28;20040;-91
2022/06/12 09:53:48;;;;;;;4.80;2.75;;;27.60;84.80;;;;;;5094338;28;20039;-89
2022/06/12 09:56:26;;;;;;;4.23;2.27;;;28.10;83.30;;;;;;5076245;28;20032;-91
2022/06/12 09:59:10;;;;;;;5.70;2.30;;;28.80;82.20;;;;;;5076580;28;20296;-90
2022/06/12 10:01:39;;;;;;;4.40;2.40;;;30.10;79.80;;;;;;5094992;28;20032;-93
2022/06/12 10:04:41;;;;;;;6.20;1.85;;;30.40;76.70;;;;;;5076289;28;20038;-90
2022/06/12 10:07:17;;;;;;;2.33;1.90;;;30.30;77.20;;;;;;5088649;28;20058;-90
2022/06/12 10:09:56;;;;;;;5.00;2.17;;;29.50;82.80;;;;;;5094932;28;20028;-91
2022/06/12 10:12:32;;;;;;;4.78;2.30;;;30.10;77.90;;;;;;5073046;28;20035;-90
2022/06/12 10:15:05;;;;;;;6.30;2.38;;;30.20;77.80;;;;;;5076774;28;20032;-90
2022/06/12 10:17:43;;;;;;;6.47;2.95;;;29.70;78.80;;;;;;5076836;28;20032;-92
2022/06/12 10:24:01;;;;;;;9.18;2.40;;;27.80;81.40;;;;;;5094599;28;20148;-91
2022/06/12 10:26:30;;;;;;;5.68;2.22;;;28.90;81.80;;;;;;5095051;28;20081;-92
2022/06/12 10:29:14;;;;;;;8.23;2.38;;;28.70;80.50;;;;;;5076964;28;20487;-90
2022/06/12 10:32:01;;;;;;;5.15;2.88;;;28.90;81.20;;;;;;5076165;28;20036;-92
2022/06/12 10:34:33;;;;;;;9.23;2.67;;;29.50;83.90;;;;;;5076019;28;20035;-91
2022/06/12 10:37:31;;;;;;;5.95;2.55;;;29.40;79.10;;;;;;5076489;28;20028;-91
2022/06/12 10:40:13;;;;;;;10.98;2.88;;;27.90;82.40;;;;;;5049271;28;20046;-92
2022/06/12 10:42:57;;;;;;;5.68;2.40;;;26.90;85.20;;;;;;5092863;28;20099;-91
2022/06/12 10:45:43;;;;;;;5.00;3.30;;;27.10;88.30;;;;;;5092668;28;20058;-91
2022/06/12 10:48:24;;;;;;;3.60;2.20;;;27.90;84.50;;;;;;5075450;28;20036;-92
2022/06/12 10:50:54;;;;;;;4.88;2.30;;;28.30;83.80;;;;;;5093399;28;20043;-91
2022/06/12 10:53:26;;;;;;;4.75;2.35;;;28.50;84.00;;;;;;5075964;28;20036;-91
2022/06/12 10:56:16;;;;;;;7.95;3.13;;;28.60;83.70;;;;;;5092250;28;20081;-92
2022/06/12 11:02:24;;;;;;;3.95;1.90;;;29.50;82.60;;;;;;5090504;28;20046;-91
2022/06/12 11:05:11;;;;;;;4.30;2.30;;;29.90;78.20;;;;;;5092302;28;20036;-92
2022/06/12 11:07:55;;;;;;;9.13;2.30;;;30.10;79.10;;;;;;5077031;28;20376;-93
2022/06/12 11:10:43;;;;;;;8.25;2.33;;;29.50;76.80;;;;;;5092955;28;20038;-92
2022/06/12 11:13:21;;;;;;;7.60;2.10;;;29.00;78.40;;;;;;5076114;28;20028;-92
2022/06/12 11:15:55;;;;;;;5.55;2.25;;;28.80;78.00;;;;;;5075593;28;20031;-91
2022/06/12 11:18:55;;;;;;;8.15;2.00;;;28.80;81.80;;;;;;5096697;28;20032;-92
2022/06/12 11:21:57;;;;;;;6.30;2.30;;;29.20;81.80;;;;;;5097045;28;20085;-90
2022/06/12 11:24:29;;;;;;;4.55;2.10;;;29.90;76.10;;;;;;5080356;28;20036;-91
2022/06/12 11:27:34;;;;;;;7.43;1.90;;;29.40;75.70;;;;;;5080277;28;20028;-93
2022/06/12 11:30:30;;;;;;;6.50;2.13;;;29.90;76.20;;;;;;5003192;28;20488;-92
2022/06/12 11:33:15;;;;;;;5.82;2.47;;;29.10;76.70;;;;;;5097337;28;20031;-91
2022/06/12 11:35:50;;;;;;;5.30;2.30;;;28.10;79.60;;;;;;5096287;28;20030;-91
2022/06/12 11:38:16;;;;;;;7.40;2.53;;;27.70;82.60;;;;;;5079593;28;20126;-92
2022/06/12 11:40:55;;;;;;;5.47;2.30;;;27.30;82.90;;;;;;5080374;28;20122;-93
2022/06/12 11:43:40;;;;;;;4.47;1.92;;;27.60;81.80;;;;;;5096773;28;20028;-91
2022/06/12 11:46:28;;;;;;;3.95;1.98;;;27.40;82.20;;;;;;5097278;28;20616;-93
2022/06/12 11:49:16;;;;;;;3.45;1.90;;;27.00;83.50;;;;;;5079564;28;20169;-92
2022/06/12 11:52:05;;;;;;;10.55;2.22;;;27.40;81.70;;;;;;5096502;28;20086;-93
2022/06/12 11:55:00;;;;;;;3.70;2.30;;;27.10;79.60;;;;;;5096987;28;20024;-91
2022/06/12 11:57:35;;;;;;;5.35;2.47;;;26.20;79.40;;;;;;5079925;28;20028;-92
2022/06/12 12:00:01;;;;;;;3.65;1.85;;;26.20;82.40;;;;;;5097576;28;20032;-92
2022/06/12 12:02:48;;;;;;;5.38;2.30;;;26.70;83.40;;;;;;5096890;28;20165;-94
2022/06/12 12:05:52;;;;;;;4.47;2.15;;;27.20;81.40;;;;;;5096631;28;20062;-91
2022/06/12 12:08:53;;;;;;;3.47;1.90;;;27.80;81.00;;;;;;5069332;28;20105;-91
2022/06/12 12:11:31;;;;;;;;;;;28.00;74.50;;;;;;5096746;28;20044;-93
2022/06/12 12:14:00;;;;;;;6.32;2.42;;;27.90;76.20;;;;;;5079513;28;19911;-94
2022/06/12 12:16:49;;;;;;;7.13;2.13;;;27.90;75.30;;;;;;5080124;28;20390;-92
2022/06/12 12:19:27;;;;;;;9.05;2.20;;;28.30;75.40;;;;;;5079641;28;20032;-92
2022/06/12 12:22:49;;;;;;;4.68;2.03;;;28.40;75.00;;;;;;5079803;28;20398;-92
2022/06/12 12:25:26;;;;;;;5.40;2.42;;;28.50;77.60;;;;;;5003049;28;20045;-93
2022/06/12 12:27:55;;;;;;;6.82;2.22;;;29.10;74.30;;;;;;5096311;28;20043;-93
2022/06/12 12:30:34;;;;;;;6.78;2.20;;;29.50;73.00;;;;;;5094889;28;20043;-91
2022/06/12 12:33:03;;;;;;;5.60;2.33;;;29.60;74.00;;;;;;5095725;28;20089;-91
2022/06/12 12:41:11;;;;;;;5.70;2.22;;;31.00;72.40;;;;;;5093746;28;20044;-94
2022/06/12 12:44:06;;;;;;;4.15;1.90;;;31.40;70.20;;;;;;5079475;28;20364;-94
2022/06/12 12:46:46;;;;;;;4.63;1.92;;;31.70;69.60;;;;;;5081726;28;20043;-93
2022/06/12 12:49:35;;;;;;;4.70;2.30;;;32.20;66.00;;;;;;5095477;28;20032;-93
2022/06/12 12:52:21;;;;;;;5.82;2.05;;;32.20;66.60;;;;;;5095354;28;20039;-91
2022/06/12 12:54:51;;;;;;;3.25;1.80;;;32.40;63.40;;;;;;5078730;28;20032;-92
2022/06/12 12:57:34;;;;;;;4.95;1.75;;;31.70;64.20;;;;;;5095426;28;20078;-92
2022/06/12 13:00:01;;;;;;;2.67;1.92;;;31.80;62.80;;;;;;5078799;28;20070;-92
2022/06/12 13:02:35;;;;;;;8.57;2.17;;;31.00;65.80;;;;;;5077826;28;20025;-92
2022/06/12 13:05:20;;;;;;;4.03;2.05;;;29.80;69.40;;;;;;5078696;28;20074;-94
2022/06/12 13:08:04;;;;;;;5.75;2.40;;;29.80;70.50;;;;;;5095648;28;20027;-91
2022/06/12 13:10:58;;;;;;;5.05;2.17;;;29.90;70.70;;;;;;5078212;28;20038;-93
2022/06/12 13:13:42;;;;;;;5.03;2.28;;;30.30;69.00;;;;;;5094665;28;20032;-94
2022/06/12 13:16:31;;;;;;;3.75;2.10;;;30.40;69.70;;;;;;5077976;28;20032;-92
2022/06/12 13:19:27;;;;;;;5.40;2.40;;;29.60;71.50;;;;;;5095471;28;20028;-91
2022/06/12 13:22:11;;;;;;;6.70;2.20;;;28.60;71.90;;;;;;5096386;28;20065;-93
2022/06/12 13:24:55;;;;;;;3.03;2.40;;;28.30;73.40;;;;;;5077837;28;20042;-91
2022/06/12 13:27:27;;;;;;;4.00;2.17;;;29.00;73.30;;;;;;5077487;28;20664;-92
2022/06/12 13:29:54;;;;;;;5.75;2.17;;;30.60;70.70;;;;;;5096283;28;20028;-92
2022/06/12 13:32:24;;;;;;;4.75;2.50;;;31.20;70.50;;;;;;5096863;28;20066;-96
2022/06/12 13:35:03;;;;;;;10.88;2.33;;;31.50;68.50;;;;;;5081471;28;20028;-94
2022/06/12 13:37:32;;;;;;;5.53;2.40;;;31.30;68.50;;;;;;5095042;28;20063;-93
2022/06/12 13:40:00;;;;;;;3.42;2.20;;;31.20;67.10;;;;;;5073290;28;20031;-94
2022/06/12 13:42:27;;;;;;;6.65;2.35;;;31.20;67.60;;;;;;5093208;28;20026;-91
2022/06/12 13:44:55;;;;;;;5.15;2.45;;;30.90;67.50;;;;;;5093610;28;20020;-92
2022/06/12 13:47:35;;;;;;;166.88;96.18;;;30.60;71.30;;;;;;5077323;28;20369;-93
2022/06/12 13:50:09;;;;;;;6.65;3.65;;;30.20;69.10;;;;;;5095391;28;20059;-92
2022/06/12 13:53:19;;;;;;;7.78;2.90;;;29.60;69.60;;;;;;5077665;28;20127;-91
2022/06/12 13:56:01;;;;;;;5.90;2.03;;;29.20;69.60;;;;;;5094532;28;20387;-92
2022/06/12 13:58:35;;;;;;;12.50;2.38;;;29.20;71.40;;;;;;5077428;28;20028;-92
2022/06/12 14:01:06;;;;;;;3.67;2.17;;;29.70;70.40;;;;;;5094056;28;20036;-91
2022/06/12 14:03:43;;;;;;;6.68;2.08;;;29.50;69.90;;;;;;5077103;28;20028;-92
2022/06/12 14:06:12;;;;;;;5.40;2.22;;;29.30;71.40;;;;;;5093848;28;20406;-92
2022/06/12 14:08:40;;;;;;;5.03;2.40;;;29.20;72.10;;;;;;5094444;28;20119;-93